sensor_id;sensor_type;location;lat;lon;timestamp;pressure;altitude;pressure_sealevel;temperature;humidity
64876;BME280;51369;49.862;9.908;2023-01-16T00:02:23;97086.75;;;4.97;77.07
64876;BME280;51369;49.862;9.908;2023-01-16T00:04:48;97088.56;;;4.96;76.75
64876;BME280;51369;49.862;9.908;2023-01-16T00:07:14;97081.41;;;4.97;77.26
64876;BME280;51369;49.862;9.908;2023-01-16T00:09:39;97077.00;;;4.96;77.34
64876;BME280;51369;49.862;9.908;2023-01-16T00:12:05;97077.91;;;4.95;76.46
64876;BME280;51369;49.862;9.908;2023-01-16T00:14:31;97076.13;;;4.95;76.38
64876;BME280;51369;49.862;9.908;2023-01-16T00:16:56;97073.44;;;4.95;76.86
64876;BME280;51369;49.862;9.908;2023-01-16T00:19:22;97063.69;;;4.94;76.43
64876;BME280;51369;49.862;9.908;2023-01-16T00:21:47;97062.00;;;4.92;76.55
64876;BME280;51369;49.862;9.908;2023-01-16T00:24:13;97058.47;;;4.91;76.83
64876;BME280;51369;49.862;9.908;2023-01-16T00:26:38;97054.91;;;4.90;76.87
64876;BME280;51369;49.862;9.908;2023-01-16T00:29:04;97056.72;;;4.90;76.34
64876;BME280;51369;49.862;9.908;2023-01-16T00:31:29;97054.16;;;4.87;77.25
64876;BME280;51369;49.862;9.908;2023-01-16T00:33:54;97048.00;;;4.85;76.31
64876;BME280;51369;49.862;9.908;2023-01-16T00:36:20;97043.47;;;4.87;76.29
64876;BME280;51369;49.862;9.908;2023-01-16T00:38:46;97029.22;;;4.86;76.43
64876;BME280;51369;49.862;9.908;2023-01-16T00:41:11;97030.97;;;4.87;76.62
64876;BME280;51369;49.862;9.908;2023-01-16T00:43:37;97030.97;;;4.87;76.87
64876;BME280;51369;49.862;9.908;2023-01-16T00:46:02;97027.38;;;4.88;77.15
64876;BME280;51369;49.862;9.908;2023-01-16T00:48:28;97019.28;;;4.90;77.67
64876;BME280;51369;49.862;9.908;2023-01-16T00:50:53;97019.22;;;4.92;77.22
64876;BME280;51369;49.862;9.908;2023-01-16T00:53:18;97020.97;;;4.93;77.02
64876;BME280;51369;49.862;9.908;2023-01-16T00:55:44;97008.38;;;4.95;77.07
64876;BME280;51369;49.862;9.908;2023-01-16T00:58:10;97008.31;;;4.96;77.49
64876;BME280;51369;49.862;9.908;2023-01-16T01:00:36;97001.09;;;4.98;76.89
64876;BME280;51369;49.862;9.908;2023-01-16T01:03:03;96995.69;;;5.00;77.19
64876;BME280;51369;49.862;9.908;2023-01-16T01:05:29;96990.28;;;5.01;76.67
64876;BME280;51369;49.862;9.908;2023-01-16T01:07:54;96983.94;;;5.04;76.53
64876;BME280;51369;49.862;9.908;2023-01-16T01:10:19;96982.94;;;5.06;76.62
64876;BME280;51369;49.862;9.908;2023-01-16T01:12:45;96973.09;;;5.07;76.68
64876;BME280;51369;49.862;9.908;2023-01-16T01:15:10;96971.22;;;5.09;75.83
64876;BME280;51369;49.862;9.908;2023-01-16T01:17:36;96960.41;;;5.12;76.45
64876;BME280;51369;49.862;9.908;2023-01-16T01:20:01;96959.31;;;5.16;76.96
64876;BME280;51369;49.862;9.908;2023-01-16T01:22:27;96961.88;;;5.19;76.52
64876;BME280;51369;49.862;9.908;2023-01-16T01:24:52;96951.94;;;5.21;76.47
64876;BME280;51369;49.862;9.908;2023-01-16T01:27:18;96945.56;;;5.23;75.62
64876;BME280;51369;49.862;9.908;2023-01-16T01:29:43;96944.56;;;5.26;75.49
64876;BME280;51369;49.862;9.908;2023-01-16T01:32:09;96948.91;;;5.29;75.51
64876;BME280;51369;49.862;9.908;2023-01-16T01:34:35;96944.38;;;5.31;75.24
64876;BME280;51369;49.862;9.908;2023-01-16T01:37:02;96938.94;;;5.32;75.91
64876;BME280;51369;49.862;9.908;2023-01-16T01:39:29;96934.47;;;5.33;75.55
64876;BME280;51369;49.862;9.908;2023-01-16T01:41:55;96918.41;;;5.33;75.88
64876;BME280;51369;49.862;9.908;2023-01-16T01:45:00;96918.41;;;5.33;75.42
64876;BME280;51369;49.862;9.908;2023-01-16T01:47:33;96905.81;;;5.35;75.53
64876;BME280;51369;49.862;9.908;2023-01-16T01:50:02;96906.75;;;5.34;75.37
64876;BME280;51369;49.862;9.908;2023-01-16T01:52:28;96906.75;;;5.34;75.76
64876;BME280;51369;49.862;9.908;2023-01-16T01:55:00;96894.31;;;5.33;74.91
64876;BME280;51369;49.862;9.908;2023-01-16T01:57:49;96897.13;;;5.30;75.62
64876;BME280;51369;49.862;9.908;2023-01-16T02:00:22;96890.78;;;5.32;75.43
64876;BME280;51369;49.862;9.908;2023-01-16T02:02:55;96878.34;;;5.31;74.79
64876;BME280;51369;49.862;9.908;2023-01-16T02:05:28;96875.59;;;5.33;75.12
64876;BME280;51369;49.862;9.908;2023-01-16T02:07:56;96861.28;;;5.34;74.48
64876;BME280;51369;49.862;9.908;2023-01-16T02:13:00;96863.09;;;5.33;74.82
64876;BME280;51369;49.862;9.908;2023-01-16T02:15:27;96853.31;;;5.32;75.06
64876;BME280;51369;49.862;9.908;2023-01-16T02:17:52;96849.78;;;5.32;74.87
64876;BME280;51369;49.862;9.908;2023-01-16T02:26:30;96827.84;;;5.23;73.92
64876;BME280;51369;49.862;9.908;2023-01-16T02:29:15;96820.75;;;5.22;74.43
64876;BME280;51369;49.862;9.908;2023-01-16T02:32:00;96811.88;;;5.22;73.88
64876;BME280;51369;49.862;9.908;2023-01-16T02:37:18;96798.44;;;5.23;74.04
64876;BME280;51369;49.862;9.908;2023-01-16T02:40:00;96786.78;;;5.24;74.33
64876;BME280;51369;49.862;9.908;2023-01-16T02:42:52;96784.03;;;5.26;74.74
64876;BME280;51369;49.862;9.908;2023-01-16T02:45:32;96778.59;;;5.28;74.30
64876;BME280;51369;49.862;9.908;2023-01-16T02:48:21;96775.78;;;5.31;74.37
64876;BME280;51369;49.862;9.908;2023-01-16T02:54:03;96752.50;;;5.33;73.70
64876;BME280;51369;49.862;9.908;2023-01-16T02:59:21;96746.00;;;5.38;73.76
64876;BME280;51369;49.862;9.908;2023-01-16T03:01:49;96737.88;;;5.40;73.77
64876;BME280;51369;49.862;9.908;2023-01-16T03:10:37;96722.56;;;5.43;73.54
64876;BME280;51369;49.862;9.908;2023-01-16T03:12:49;96703.66;;;5.46;73.76
64876;BME280;51369;49.862;9.908;2023-01-16T03:15:26;96689.41;;;5.46;73.17
64876;BME280;51369;49.862;9.908;2023-01-16T03:26:29;96667.22;;;5.44;73.79
64876;BME280;51369;49.862;9.908;2023-01-16T03:31:52;96669.75;;;5.47;73.13
64876;BME280;51369;49.862;9.908;2023-01-16T03:34:43;96655.56;;;5.45;73.48
64876;BME280;51369;49.862;9.908;2023-01-16T03:37:22;96652.81;;;5.46;73.81
64876;BME280;51369;49.862;9.908;2023-01-16T03:39:56;96652.75;;;5.48;73.10
64876;BME280;51369;49.862;9.908;2023-01-16T03:42:32;96645.56;;;5.48;74.03
64876;BME280;51369;49.862;9.908;2023-01-16T03:45:05;96633.94;;;5.49;73.84
64876;BME280;51369;49.862;9.908;2023-01-16T03:47:41;96627.72;;;5.49;74.08
64876;BME280;51369;49.862;9.908;2023-01-16T03:50:10;96629.38;;;5.51;73.41
64876;BME280;51369;49.862;9.908;2023-01-16T03:52:47;96622.19;;;5.52;73.56
64876;BME280;51369;49.862;9.908;2023-01-16T03:57:47;96617.63;;;5.54;73.79
64876;BME280;51369;49.862;9.908;2023-01-16T04:00:15;96599.69;;;5.56;73.77
64876;BME280;51369;49.862;9.908;2023-01-16T04:02:52;96597.88;;;5.56;73.82
64876;BME280;51369;49.862;9.908;2023-01-16T04:05:25;96590.63;;;5.59;73.12
64876;BME280;51369;49.862;9.908;2023-01-16T04:08:08;96589.69;;;5.60;73.38
64876;BME280;51369;49.862;9.908;2023-01-16T04:10:35;96584.25;;;5.61;73.42
64876;BME280;51369;49.862;9.908;2023-01-16T04:13:05;96579.69;;;5.63;72.72
64876;BME280;51369;49.862;9.908;2023-01-16T04:15:34;96570.72;;;5.64;73.49
64876;BME280;51369;49.862;9.908;2023-01-16T04:18:00;96571.59;;;5.65;72.56
64876;BME280;51369;49.862;9.908;2023-01-16T04:20:28;96556.38;;;5.65;73.10
64876;BME280;51369;49.862;9.908;2023-01-16T04:22:54;96554.56;;;5.66;72.87
64876;BME280;51369;49.862;9.908;2023-01-16T04:25:20;96549.13;;;5.67;72.94
64876;BME280;51369;49.862;9.908;2023-01-16T04:27:45;96543.78;;;5.67;72.86
64876;BME280;51369;49.862;9.908;2023-01-16T04:30:11;96548.28;;;5.67;72.94
64876;BME280;51369;49.862;9.908;2023-01-16T04:32:36;96542.91;;;5.67;72.72
64876;BME280;51369;49.862;9.908;2023-01-16T04:35:03;96537.47;;;5.68;72.43
64876;BME280;51369;49.862;9.908;2023-01-16T04:37:28;96530.41;;;5.67;72.24
64876;BME280;51369;49.862;9.908;2023-01-16T04:39:54;96528.59;;;5.68;72.45
64876;BME280;51369;49.862;9.908;2023-01-16T04:42:19;96517.00;;;5.67;72.44
64876;BME280;51369;49.862;9.908;2023-01-16T04:44:46;96515.19;;;5.68;72.81
64876;BME280;51369;49.862;9.908;2023-01-16T04:47:11;96512.53;;;5.68;72.52
64876;BME280;51369;49.862;9.908;2023-01-16T04:49:36;96510.72;;;5.68;72.14
64876;BME280;51369;49.862;9.908;2023-01-16T04:52:02;96504.41;;;5.69;72.21
64876;BME280;51369;49.862;9.908;2023-01-16T04:54:28;96506.22;;;5.69;72.57
64876;BME280;51369;49.862;9.908;2023-01-16T04:56:53;96495.50;;;5.69;72.01
64876;BME280;51369;49.862;9.908;2023-01-16T04:59:18;96497.25;;;5.70;72.64
64876;BME280;51369;49.862;9.908;2023-01-16T05:01:45;96491.88;;;5.70;72.62
64876;BME280;51369;49.862;9.908;2023-01-16T05:04:12;96484.72;;;5.70;72.02
64876;BME280;51369;49.862;9.908;2023-01-16T05:06:38;96465.97;;;5.70;72.06
64876;BME280;51369;49.862;9.908;2023-01-16T05:09:04;96468.66;;;5.70;72.02
64876;BME280;51369;49.862;9.908;2023-01-16T05:11:30;96471.34;;;5.70;72.38
64876;BME280;51369;49.862;9.908;2023-01-16T05:13:55;96459.69;;;5.71;71.71
64876;BME280;51369;49.862;9.908;2023-01-16T05:16:21;96457.94;;;5.70;71.77
64876;BME280;51369;49.862;9.908;2023-01-16T05:18:46;96457.94;;;5.70;71.93
64876;BME280;51369;49.862;9.908;2023-01-16T05:21:12;96445.50;;;5.69;72.58
64876;BME280;51369;49.862;9.908;2023-01-16T05:23:37;96447.34;;;5.69;72.48
64876;BME280;51369;49.862;9.908;2023-01-16T05:26:04;96447.34;;;5.69;72.54
64876;BME280;51369;49.862;9.908;2023-01-16T05:28:30;96442.94;;;5.68;72.14
64876;BME280;51369;49.862;9.908;2023-01-16T05:30:55;96434.88;;;5.68;71.90
64876;BME280;51369;49.862;9.908;2023-01-16T05:33:21;96435.75;;;5.68;72.13
64876;BME280;51369;49.862;9.908;2023-01-16T05:35:46;96430.41;;;5.68;72.57
64876;BME280;51369;49.862;9.908;2023-01-16T05:38:13;96427.81;;;5.67;72.08
64876;BME280;51369;49.862;9.908;2023-01-16T05:40:38;96413.47;;;5.68;71.58
64876;BME280;51369;49.862;9.908;2023-01-16T05:43:04;96409.00;;;5.68;71.99
64876;BME280;51369;49.862;9.908;2023-01-16T05:45:30;96396.47;;;5.69;71.41
64876;BME280;51369;49.862;9.908;2023-01-16T05:47:55;96383.00;;;5.70;72.10
64876;BME280;51369;49.862;9.908;2023-01-16T05:50:20;96376.69;;;5.71;71.66
64876;BME280;51369;49.862;9.908;2023-01-16T05:52:48;96376.59;;;5.73;71.34
64876;BME280;51369;49.862;9.908;2023-01-16T05:55:13;96374.78;;;5.73;71.86
64876;BME280;51369;49.862;9.908;2023-01-16T05:57:39;96357.78;;;5.74;71.83
64876;BME280;51369;49.862;9.908;2023-01-16T06:00:05;96358.66;;;5.75;71.56
64876;BME280;51369;49.862;9.908;2023-01-16T06:02:31;96348.81;;;5.75;71.77
64876;BME280;51369;49.862;9.908;2023-01-16T06:04:56;96337.22;;;5.75;71.70
64876;BME280;51369;49.862;9.908;2023-01-16T06:07:22;96340.00;;;5.73;71.97
64876;BME280;51369;49.862;9.908;2023-01-16T06:09:47;96340.84;;;5.74;71.75
64876;BME280;51369;49.862;9.908;2023-01-16T06:12:16;96333.84;;;5.71;72.35
64876;BME280;51369;49.862;9.908;2023-01-16T06:14:43;96327.72;;;5.69;71.73
64876;BME280;51369;49.862;9.908;2023-01-16T06:17:09;96320.72;;;5.67;72.45
64876;BME280;51369;49.862;9.908;2023-01-16T06:19:35;96314.59;;;5.65;72.54
64876;BME280;51369;49.862;9.908;2023-01-16T06:22:00;96310.28;;;5.62;72.60
64876;BME280;51369;49.862;9.908;2023-01-16T06:24:26;96308.72;;;5.58;72.52
64876;BME280;51369;49.862;9.908;2023-01-16T06:26:51;96291.97;;;5.54;72.67
64876;BME280;51369;49.862;9.908;2023-01-16T06:29:17;96284.38;;;5.47;72.41
64876;BME280;51369;49.862;9.908;2023-01-16T06:31:42;96277.63;;;5.40;72.19
64876;BME280;51369;49.862;9.908;2023-01-16T06:34:07;96275.47;;;5.31;72.29
64876;BME280;51369;49.862;9.908;2023-01-16T06:36:33;96270.63;;;5.21;72.66
64876;BME280;51369;49.862;9.908;2023-01-16T06:38:58;96267.47;;;5.15;72.69
64876;BME280;51369;49.862;9.908;2023-01-16T06:41:24;96271.59;;;5.05;72.74
64876;BME280;51369;49.862;9.908;2023-01-16T06:43:49;96267.69;;;4.95;72.50
64876;BME280;51369;49.862;9.908;2023-01-16T06:46:14;96253.94;;;4.85;72.35
64876;BME280;51369;49.862;9.908;2023-01-16T06:48:40;96252.72;;;4.75;72.40
64876;BME280;51369;49.862;9.908;2023-01-16T06:51:08;96246.13;;;4.65;72.43
64876;BME280;51369;49.862;9.908;2023-01-16T06:53:35;96237.66;;;4.56;73.32
64876;BME280;51369;49.862;9.908;2023-01-16T06:56:00;96229.19;;;4.48;73.27
64876;BME280;51369;49.862;9.908;2023-01-16T06:58:25;96220.69;;;4.40;73.37
64876;BME280;51369;49.862;9.908;2023-01-16T07:00:51;96222.84;;;4.34;72.54
64876;BME280;51369;49.862;9.908;2023-01-16T07:03:17;96215.22;;;4.26;73.52
64876;BME280;51369;49.862;9.908;2023-01-16T07:05:44;96204.78;;;4.21;73.65
64876;BME280;51369;49.862;9.908;2023-01-16T07:08:09;96198.81;;;4.16;73.56
64876;BME280;51369;49.862;9.908;2023-01-16T07:10:35;96179.50;;;4.11;72.96
64876;BME280;51369;49.862;9.908;2023-01-16T07:13:01;96171.81;;;4.05;73.82
64876;BME280;51369;49.862;9.908;2023-01-16T07:15:26;96175.50;;;4.03;73.50
64876;BME280;51369;49.862;9.908;2023-01-16T07:18:15;96179.28;;;3.99;73.88
64876;BME280;51369;49.862;9.908;2023-01-16T07:21:04;96171.41;;;3.96;74.01
64876;BME280;51369;49.862;9.908;2023-01-16T07:23:52;96163.56;;;3.92;74.18
64876;BME280;51369;49.862;9.908;2023-01-16T07:26:20;96168.03;;;3.92;73.28
64876;BME280;51369;49.862;9.908;2023-01-16T07:28:47;96166.41;;;3.89;73.41
64876;BME280;51369;49.862;9.908;2023-01-16T07:31:15;96167.41;;;3.87;73.96
64876;BME280;51369;49.862;9.908;2023-01-16T07:33:41;96156.03;;;3.83;74.07
64876;BME280;51369;49.862;9.908;2023-01-16T07:36:07;96159.72;;;3.81;74.33
64876;BME280;51369;49.862;9.908;2023-01-16T07:38:32;96153.59;;;3.79;73.66
64876;BME280;51369;49.862;9.908;2023-01-16T07:40:57;96156.34;;;3.77;74.07
64876;BME280;51369;49.862;9.908;2023-01-16T07:43:23;96156.44;;;3.76;74.94
64876;BME280;51369;49.862;9.908;2023-01-16T07:45:48;96150.31;;;3.74;74.72
64876;BME280;51369;49.862;9.908;2023-01-16T07:48:21;96139.63;;;3.74;74.55
64876;BME280;51369;49.862;9.908;2023-01-16T07:50:55;96129.81;;;3.74;75.08
64876;BME280;51369;49.862;9.908;2023-01-16T07:53:22;96126.22;;;3.75;74.99
64876;BME280;51369;49.862;9.908;2023-01-16T07:55:52;96134.13;;;3.77;74.34
64876;BME280;51369;49.862;9.908;2023-01-16T07:58:18;96132.34;;;3.77;74.21
64876;BME280;51369;49.862;9.908;2023-01-16T08:00:44;96120.72;;;3.78;73.76
64876;BME280;51369;49.862;9.908;2023-01-16T08:03:11;96118.03;;;3.78;74.25
64876;BME280;51369;49.862;9.908;2023-01-16T08:05:37;96109.09;;;3.79;73.87
64876;BME280;51369;49.862;9.908;2023-01-16T08:08:02;96107.28;;;3.80;74.67
64876;BME280;51369;49.862;9.908;2023-01-16T08:10:28;96103.59;;;3.82;74.60
64876;BME280;51369;49.862;9.908;2023-01-16T08:12:53;96102.66;;;3.83;74.29
64876;BME280;51369;49.862;9.908;2023-01-16T08:15:18;96101.72;;;3.84;74.22
64876;BME280;51369;49.862;9.908;2023-01-16T08:17:44;96094.56;;;3.85;73.63
64876;BME280;51369;49.862;9.908;2023-01-16T08:20:10;96098.09;;;3.85;74.45
64876;BME280;51369;49.862;9.908;2023-01-16T08:22:47;96094.56;;;3.85;74.22
64876;BME280;51369;49.862;9.908;2023-01-16T08:25:14;96087.44;;;3.85;74.18
64876;BME280;51369;49.862;9.908;2023-01-16T08:27:40;96093.53;;;3.87;74.09
64876;BME280;51369;49.862;9.908;2023-01-16T08:30:07;96074.88;;;3.87;73.59
64876;BME280;51369;49.862;9.908;2023-01-16T08:32:32;96079.41;;;3.85;73.98
64876;BME280;51369;49.862;9.908;2023-01-16T08:34:58;96071.50;;;3.84;74.38
64876;BME280;51369;49.862;9.908;2023-01-16T08:37:23;96055.47;;;3.84;74.24
64876;BME280;51369;49.862;9.908;2023-01-16T08:39:48;96051.00;;;3.84;75.14
64876;BME280;51369;49.862;9.908;2023-01-16T08:42:14;96037.66;;;3.84;74.93
64876;BME280;51369;49.862;9.908;2023-01-16T08:44:58;96036.72;;;3.85;74.55
64876;BME280;51369;49.862;9.908;2023-01-16T08:47:42;96029.66;;;3.84;74.54
64876;BME280;51369;49.862;9.908;2023-01-16T08:50:26;96026.03;;;3.85;74.83
64876;BME280;51369;49.862;9.908;2023-01-16T08:53:10;96019.06;;;3.83;75.02
64876;BME280;51369;49.862;9.908;2023-01-16T08:55:36;96027.06;;;3.83;74.72
64876;BME280;51369;49.862;9.908;2023-01-16T08:58:02;96025.25;;;3.83;74.42
64876;BME280;51369;49.862;9.908;2023-01-16T09:00:28;96015.53;;;3.82;74.76
64876;BME280;51369;49.862;9.908;2023-01-16T09:02:54;96002.09;;;3.84;75.56
64876;BME280;51369;49.862;9.908;2023-01-16T09:05:22;96009.09;;;3.86;74.60
64876;BME280;51369;49.862;9.908;2023-01-16T09:07:47;96004.53;;;3.88;75.00
64876;BME280;51369;49.862;9.908;2023-01-16T09:10:13;95999.03;;;3.91;75.40
64876;BME280;51369;49.862;9.908;2023-01-16T09:12:39;95991.72;;;3.95;75.23
64876;BME280;51369;49.862;9.908;2023-01-16T09:15:24;95986.03;;;4.01;74.63
64876;BME280;51369;49.862;9.908;2023-01-16T09:17:49;95976.81;;;4.07;74.87
64876;BME280;51369;49.862;9.908;2023-01-16T09:20:15;95970.38;;;4.11;74.35
64876;BME280;51369;49.862;9.908;2023-01-16T09:22:40;95970.91;;;4.17;74.73
64876;BME280;51369;49.862;9.908;2023-01-16T09:25:06;95970.63;;;4.22;74.42
64876;BME280;51369;49.862;9.908;2023-01-16T09:27:32;95966.75;;;4.28;74.31
64876;BME280;51369;49.862;9.908;2023-01-16T09:29:57;95965.63;;;4.32;74.55
64876;BME280;51369;49.862;9.908;2023-01-16T09:32:23;95946.69;;;4.36;74.33
64876;BME280;51369;49.862;9.908;2023-01-16T09:34:48;95948.22;;;4.40;73.94
64876;BME280;51369;49.862;9.908;2023-01-16T09:37:14;95950.63;;;4.45;73.10
64876;BME280;51369;49.862;9.908;2023-01-16T09:39:39;95944.09;;;4.50;74.42
64876;BME280;51369;49.862;9.908;2023-01-16T09:42:24;95946.50;;;4.55;73.70
64876;BME280;51369;49.862;9.908;2023-01-16T09:45:15;95935.28;;;4.64;74.01
64876;BME280;51369;49.862;9.908;2023-01-16T09:47:43;95941.97;;;4.71;74.37
64876;BME280;51369;49.862;9.908;2023-01-16T09:50:30;95939.63;;;4.81;73.41
64876;BME280;51369;49.862;9.908;2023-01-16T09:52:58;95938.22;;;4.89;73.76
64876;BME280;51369;49.862;9.908;2023-01-16T09:55:48;95924.41;;;4.97;73.98
64876;BME280;51369;49.862;9.908;2023-01-16T09:58:39;95912.22;;;5.07;73.57
64876;BME280;51369;49.862;9.908;2023-01-16T10:03:43;95897.00;;;5.22;72.86
64876;BME280;51369;49.862;9.908;2023-01-16T10:06:27;95881.34;;;5.30;72.84
64876;BME280;51369;49.862;9.908;2023-01-16T10:09:10;95868.19;;;5.41;72.23
64876;BME280;51369;49.862;9.908;2023-01-16T10:11:43;95866.56;;;5.53;72.62
64876;BME280;51369;49.862;9.908;2023-01-16T10:14:47;95871.91;;;5.67;71.85
64876;BME280;51369;49.862;9.908;2023-01-16T10:17:19;95865.56;;;5.82;72.41
64876;BME280;51369;49.862;9.908;2023-01-16T10:20:23;95867.41;;;5.96;71.20
64876;BME280;51369;49.862;9.908;2023-01-16T10:23:06;95864.59;;;6.12;71.36
64876;BME280;51369;49.862;9.908;2023-01-16T10:25:44;95855.84;;;6.23;70.71
64876;BME280;51369;49.862;9.908;2023-01-16T10:28:32;95851.19;;;6.39;70.11
64876;BME280;51369;49.862;9.908;2023-01-16T10:31:33;95844.16;;;6.50;69.46
64876;BME280;51369;49.862;9.908;2023-01-16T10:34:00;95839.81;;;6.62;69.16
64876;BME280;51369;49.862;9.908;2023-01-16T10:36:30;95830.19;;;6.72;69.00
64876;BME280;51369;49.862;9.908;2023-01-16T10:38:58;95826.88;;;6.81;68.59
64876;BME280;51369;49.862;9.908;2023-01-16T10:41:28;95831.81;;;6.88;68.06
64876;BME280;51369;49.862;9.908;2023-01-16T10:47:23;95824.72;;;6.99;66.90
64876;BME280;51369;49.862;9.908;2023-01-16T10:50:08;95829.00;;;7.02;66.73
64876;BME280;51369;49.862;9.908;2023-01-16T10:52:35;95815.69;;;7.00;66.39
64876;BME280;51369;49.862;9.908;2023-01-16T10:55:01;95804.97;;;7.00;65.64
64876;BME280;51369;49.862;9.908;2023-01-16T10:57:28;95806.91;;;6.98;66.63
64876;BME280;51369;49.862;9.908;2023-01-16T10:59:58;95817.72;;;6.97;65.94
64876;BME280;51369;49.862;9.908;2023-01-16T11:02:34;95804.78;;;6.91;67.64
64876;BME280;51369;49.862;9.908;2023-01-16T11:05:00;95795.34;;;6.85;67.88
64876;BME280;51369;49.862;9.908;2023-01-16T11:07:28;95790.81;;;6.73;68.28
64876;BME280;51369;49.862;9.908;2023-01-16T11:09:54;95786.94;;;6.64;68.95
64876;BME280;51369;49.862;9.908;2023-01-16T11:12:23;95780.50;;;6.54;69.40
64876;BME280;51369;49.862;9.908;2023-01-16T11:15:23;95784.75;;;6.44;70.28
64876;BME280;51369;49.862;9.908;2023-01-16T11:18:34;95777.53;;;6.32;70.54
64876;BME280;51369;49.862;9.908;2023-01-16T11:21:13;95774.22;;;6.28;70.87
64876;BME280;51369;49.862;9.908;2023-01-16T11:23:42;95766.59;;;6.22;71.96
64876;BME280;51369;49.862;9.908;2023-01-16T11:26:09;95764.31;;;6.16;72.06
64876;BME280;51369;49.862;9.908;2023-01-16T11:28:36;95755.94;;;6.08;72.24
64876;BME280;51369;49.862;9.908;2023-01-16T11:31:14;95742.28;;;5.98;73.11
64876;BME280;51369;49.862;9.908;2023-01-16T11:33:52;95741.75;;;5.93;73.50
64876;BME280;51369;49.862;9.908;2023-01-16T11:36:21;95735.72;;;5.90;73.75
64876;BME280;51369;49.862;9.908;2023-01-16T11:38:48;95746.81;;;5.83;73.61
64876;BME280;51369;49.862;9.908;2023-01-16T11:41:28;95723.31;;;5.74;74.21
64876;BME280;51369;49.862;9.908;2023-01-16T11:44:33;95726.19;;;5.71;74.12
64876;BME280;51369;49.862;9.908;2023-01-16T11:47:17;95711.22;;;5.69;74.63
64876;BME280;51369;49.862;9.908;2023-01-16T11:49:51;95707.66;;;5.68;75.23
64876;BME280;51369;49.862;9.908;2023-01-16T11:52:19;95689.91;;;5.67;75.73
64876;BME280;51369;49.862;9.908;2023-01-16T11:55:01;95688.84;;;5.70;74.97
64876;BME280;51369;49.862;9.908;2023-01-16T11:57:37;95688.72;;;5.71;75.56
64876;BME280;51369;49.862;9.908;2023-01-16T12:05:52;95671.75;;;5.85;74.08
64876;BME280;51369;49.862;9.908;2023-01-16T12:11:42;95644.06;;;5.99;73.40
64876;BME280;51369;49.862;9.908;2023-01-16T12:19:56;95623.22;;;6.16;72.70
64876;BME280;51369;49.862;9.908;2023-01-16T12:34:18;95605.53;;;6.39;71.85
64876;BME280;51369;49.862;9.908;2023-01-16T12:39:53;95596.75;;;6.37;70.68
64876;BME280;51369;49.862;9.908;2023-01-16T12:51:24;95576.81;;;6.29;71.48
64876;BME280;51369;49.862;9.908;2023-01-16T12:57:07;95554.97;;;6.22;71.85
64876;BME280;51369;49.862;9.908;2023-01-16T12:59:41;95543.50;;;6.20;72.71
64876;BME280;51369;49.862;9.908;2023-01-16T13:04:58;95528.81;;;6.13;72.57
64876;BME280;51369;49.862;9.908;2023-01-16T13:07:29;95529.16;;;6.08;72.93
64876;BME280;51369;49.862;9.908;2023-01-16T13:10:10;95524.13;;;6.04;73.55
64876;BME280;51369;49.862;9.908;2023-01-16T13:12:58;95520.69;;;6.02;73.41
64876;BME280;51369;49.862;9.908;2023-01-16T13:15:45;95509.22;;;6.00;73.30
64876;BME280;51369;49.862;9.908;2023-01-16T13:18:32;95503.00;;;5.99;73.18
64876;BME280;51369;49.862;9.908;2023-01-16T13:21:02;95492.31;;;5.99;73.13
64876;BME280;51369;49.862;9.908;2023-01-16T13:23:50;95490.47;;;6.00;73.47
64876;BME280;51369;49.862;9.908;2023-01-16T13:26:18;95496.59;;;6.02;73.34
64876;BME280;51369;49.862;9.908;2023-01-16T13:31:39;95476.66;;;6.06;73.51
64876;BME280;51369;49.862;9.908;2023-01-16T13:34:13;95461.44;;;6.06;73.29
64876;BME280;51369;49.862;9.908;2023-01-16T13:40:18;95457.06;;;6.05;73.23
64876;BME280;51369;49.862;9.908;2023-01-16T13:42:23;95454.50;;;6.04;73.12
64876;BME280;51369;49.862;9.908;2023-01-16T13:44:55;95446.56;;;6.02;73.68
64876;BME280;51369;49.862;9.908;2023-01-16T13:47:41;95432.22;;;6.03;73.71
64876;BME280;51369;49.862;9.908;2023-01-16T13:50:21;95435.00;;;6.02;73.67
64876;BME280;51369;49.862;9.908;2023-01-16T13:52:48;95424.81;;;6.07;73.76
64876;BME280;51369;49.862;9.908;2023-01-16T13:55:26;95423.00;;;6.07;73.92
64876;BME280;51369;49.862;9.908;2023-01-16T13:57:55;95419.13;;;6.11;74.05
64876;BME280;51369;49.862;9.908;2023-01-16T14:00:23;95410.97;;;6.13;74.72
64876;BME280;51369;49.862;9.908;2023-01-16T14:03:22;95405.63;;;6.13;74.88
64876;BME280;51369;49.862;9.908;2023-01-16T14:05:50;95395.66;;;6.15;74.61
64876;BME280;51369;49.862;9.908;2023-01-16T14:08:28;95401.00;;;6.15;74.88
64876;BME280;51369;49.862;9.908;2023-01-16T14:14:22;95381.53;;;6.13;75.30
64876;BME280;51369;49.862;9.908;2023-01-16T14:17:09;95368.03;;;6.14;75.08
64876;BME280;51369;49.862;9.908;2023-01-16T14:19:54;95356.34;;;6.15;74.72
64876;BME280;51369;49.862;9.908;2023-01-16T14:22:22;95351.84;;;6.16;74.74
64876;BME280;51369;49.862;9.908;2023-01-16T14:24:52;95350.88;;;6.17;75.06
64876;BME280;51369;49.862;9.908;2023-01-16T14:27:21;95327.72;;;6.16;74.97
64876;BME280;51369;49.862;9.908;2023-01-16T14:29:51;95323.34;;;6.15;74.79
64876;BME280;51369;49.862;9.908;2023-01-16T14:32:19;95312.84;;;6.12;75.02
64876;BME280;51369;49.862;9.908;2023-01-16T14:35:02;95322.94;;;6.08;74.78
64876;BME280;51369;49.862;9.908;2023-01-16T14:37:35;95313.31;;;6.06;74.53
64876;BME280;51369;49.862;9.908;2023-01-16T14:40:18;95303.69;;;6.03;74.56
64876;BME280;51369;49.862;9.908;2023-01-16T14:42:55;95293.31;;;5.99;74.17
64876;BME280;51369;49.862;9.908;2023-01-16T14:45:41;95286.97;;;6.00;74.53
64876;BME280;51369;49.862;9.908;2023-01-16T14:48:45;95273.38;;;6.03;75.01
64876;BME280;51369;49.862;9.908;2023-01-16T14:51:34;95272.16;;;6.07;74.56
64876;BME280;51369;49.862;9.908;2023-01-16T14:54:30;95272.56;;;6.13;74.72
64876;BME280;51369;49.862;9.908;2023-01-16T14:57:18;95265.66;;;6.22;74.58
64876;BME280;51369;49.862;9.908;2023-01-16T14:59:47;95262.53;;;6.28;74.29
64876;BME280;51369;49.862;9.908;2023-01-16T15:02:23;95248.16;;;6.29;74.67
64876;BME280;51369;49.862;9.908;2023-01-16T15:05:01;95234.78;;;6.29;74.14
64876;BME280;51369;49.862;9.908;2023-01-16T15:07:41;95223.44;;;6.26;73.96
64876;BME280;51369;49.862;9.908;2023-01-16T15:10:17;95217.56;;;6.20;73.96